Time;durP1;ratioP1;P1;durP2;ratioP2;P2;SDS_P1;SDS_P2;PMS_P1;PMS_P2;Temp;Humidity;BMP_temperature;BMP_pressure;BME280_temperature;BME280_humidity;BME280_pressure;Samples;Min_cycle;Max_cycle;Signal;HPM_P1;HPM_P2
2022/03/27 00:00:21;;;;;;;22.95;17.50;;;;;;;13.25;37.86;102249.25;5009973;28;20136;-83
2022/03/27 00:02:48;;;;;;;23.15;17.77;;;;;;;13.50;38.11;102294.63;5009072;28;20514;-83
2022/03/27 00:05:15;;;;;;;25.08;18.33;;;;;;;13.40;38.15;102297.97;5009316;28;20054;-85
2022/03/27 00:07:42;;;;;;;21.38;17.15;;;;;;;13.36;38.46;102293.81;5008964;28;20133;-83
2022/03/27 00:10:09;;;;;;;24.90;18.67;;;;;;;13.26;38.38;102292.75;5009954;28;20403;-83
2022/03/27 00:12:36;;;;;;;22.42;18.80;;;;;;;13.30;38.93;102296.94;5008994;28;20170;-83
2022/03/27 00:15:04;;;;;;;21.67;17.98;;;;;;;12.76;39.09;102215.50;5027972;28;20219;-83
2022/03/27 00:17:33;;;;;;;22.98;17.38;;;;;;;12.31;39.38;102139.78;5028522;28;20136;-83
2022/03/27 00:20:04;;;;;;;23.95;19.63;;;;;;;12.80;40.07;102232.13;5028623;28;20049;-83
2022/03/27 00:22:32;;;;;;;22.27;18.83;;;;;;;13.03;39.81;102273.09;5028400;28;20073;-82
2022/03/27 00:24:59;;;;;;;24.58;18.55;;;;;;;13.11;39.25;102276.06;5029530;28;20050;-84
2022/03/27 00:27:26;;;;;;;23.20;18.95;;;;;;;13.04;39.42;102257.00;5028260;28;20550;-83
2022/03/27 00:29:52;;;;;;;24.50;18.52;;;;;;;13.23;38.99;102291.16;5028439;28;20084;-84
2022/03/27 00:32:20;;;;;;;26.48;18.65;;;;;;;13.00;40.01;102271.50;5027111;28;20127;-84
2022/03/27 00:34:48;;;;;;;24.20;19.02;;;;;;;12.36;40.42;102169.59;5028327;28;20434;-83
2022/03/27 00:37:14;;;;;;;23.42;19.23;;;;;;;12.84;40.22;102265.59;5029113;28;20562;-84
2022/03/27 00:39:41;;;;;;;23.20;19.10;;;;;;;12.90;40.25;102275.81;5028107;28;20076;-83
2022/03/27 00:42:08;;;;;;;23.88;18.63;;;;;;;12.90;40.42;102286.47;5028151;28;20045;-83
2022/03/27 00:44:36;;;;;;;27.00;19.92;;;;;;;12.70;40.32;102255.09;5028114;28;20406;-83
2022/03/27 00:47:04;;;;;;;21.80;17.90;;;;;;;12.87;40.44;102281.38;5027445;28;20440;-84
2022/03/27 00:49:35;;;;;;;32.08;19.65;;;;;;;12.06;40.25;102157.47;5027831;28;20126;-85
2022/03/27 00:52:03;;;;;;;26.27;19.13;;;;;;;12.44;40.11;102217.81;5027703;28;20576;-82
2022/03/27 00:54:29;;;;;;;29.48;19.23;;;;;;;12.79;40.89;102295.25;5028780;28;20080;-83
2022/03/27 00:56:56;;;;;;;26.65;18.83;;;;;;;11.23;40.53;102051.47;5030423;28;20050;-83
2022/03/27 00:59:22;;;;;;;26.95;19.25;;;;;;;12.58;41.00;102265.63;5028349;28;20056;-83
2022/03/27 01:01:49;;;;;;;32.05;19.98;;;;;;;12.91;40.89;102280.16;5029803;28;20160;-82
2022/03/27 01:04:16;;;;;;;22.90;19.27;;;;;;;12.97;40.56;102289.56;5031278;28;20042;-83
2022/03/27 01:06:44;;;;;;;32.42;20.58;;;;;;;12.88;39.78;102272.38;5033066;28;20128;-83
2022/03/27 01:09:35;;;;;;;27.13;18.27;;;;;;;12.92;39.59;102268.56;5029885;28;20096;-83
2022/03/27 01:12:16;;;;;;;25.27;19.85;;;;;;;12.84;39.86;102257.59;5028267;28;20156;-83
2022/03/27 01:14:46;;;;;;;24.02;20.02;;;;;;;12.80;41.07;102285.44;5013010;28;20133;-84
2022/03/27 01:17:15;;;;;;;28.55;19.65;;;;;;;12.70;40.26;102263.06;5016608;28;20496;-85
2022/03/27 01:19:55;;;;;;;26.90;18.10;;;;;;;12.83;40.50;102283.38;5016455;28;20049;-83
2022/03/27 01:22:23;;;;;;;24.73;17.90;;;;;;;12.37;40.15;102203.22;5010698;28;20087;-83
2022/03/27 01:24:51;;;;;;;22.70;17.30;;;;;;;12.36;40.76;102233.50;5008750;28;20060;-84
2022/03/27 01:27:18;;;;;;;22.92;17.13;;;;;;;12.67;40.83;102290.78;5008699;28;20622;-83
2022/03/27 01:29:46;;;;;;;21.35;16.38;;;;;;;12.51;40.76;102272.34;5007488;28;20137;-81
2022/03/27 01:32:14;;;;;;;19.77;14.27;;;;;;;12.41;39.99;102247.34;5007274;28;20551;-83
2022/03/27 01:34:47;;;;;;;16.98;13.93;;;;;;;12.82;38.98;102281.69;5007932;28;20053;-84
2022/03/27 01:37:15;;;;;;;16.90;14.80;;;;;;;12.32;39.64;102221.34;5007962;28;20077;-84
2022/03/27 01:39:42;;;;;;;18.05;14.77;;;;;;;12.48;40.00;102274.41;5007443;28;20129;-84
2022/03/27 01:42:13;;;;;;;21.33;15.88;;;;;;;12.49;39.93;102292.91;5007964;28;20132;-81
2022/03/27 01:44:40;;;;;;;18.30;15.95;;;;;;;12.10;40.93;102248.63;5008452;28;20082;-84
2022/03/27 01:47:07;;;;;;;17.73;15.40;;;;;;;11.61;40.97;102186.28;5007618;28;20059;-82
2022/03/27 01:49:35;;;;;;;23.85;15.80;;;;;;;12.41;39.50;102305.94;5023832;28;20054;-84
2022/03/27 01:52:03;;;;;;;19.65;15.52;;;;;;;12.44;39.26;102302.19;5007266;28;20081;-85
2022/03/27 01:54:29;;;;;;;19.00;15.00;;;;;;;12.22;39.65;102273.56;5007412;28;20046;-82
2022/03/27 01:56:56;;;;;;;25.50;17.17;;;;;;;11.73;39.58;102198.75;5007332;28;20132;-83
2022/03/27 01:59:23;;;;;;;22.40;18.92;;;;;;;12.09;40.17;102279.72;5006538;28;20132;-83
2022/03/27 02:01:50;;;;;;;27.15;19.70;;;;;;;12.14;40.14;102272.28;5005839;28;20076;-83
2022/03/27 02:04:17;;;;;;;25.40;19.83;;;;;;;11.29;40.16;102136.16;5006251;28;20057;-82
2022/03/27 02:06:44;;;;;;;28.88;20.40;;;;;;;12.16;40.08;102286.34;5005817;28;20052;-83
2022/03/27 02:09:12;;;;;;;24.25;20.90;;;;;;;11.74;40.32;102221.72;5007007;28;20077;-83
2022/03/27 02:11:40;;;;;;;27.52;18.83;;;;;;;12.07;41.03;102312.72;5006400;28;20069;-83
2022/03/27 02:14:08;;;;;;;27.52;22.23;;;;;;;12.03;40.79;102313.88;5016099;28;20136;-84
2022/03/27 02:16:35;;;;;;;29.33;21.17;;;;;;;12.00;40.91;102312.28;5024963;28;20128;-83
2022/03/27 02:19:06;;;;;;;27.63;20.60;;;;;;;11.80;40.41;102284.34;5025014;28;20049;-83
2022/03/27 02:21:32;;;;;;;29.20;20.77;;;;;;;11.55;40.52;102248.75;5023418;28;20192;-82
2022/03/27 02:23:59;;;;;;;25.13;19.52;;;;;;;11.82;40.86;102308.16;5023667;28;20451;-84
2022/03/27 02:26:25;;;;;;;24.95;18.73;;;;;;;11.82;40.69;102305.50;5023638;28;20144;-83
2022/03/27 02:28:52;;;;;;;25.55;18.83;;;;;;;11.33;41.41;102233.38;5026390;28;20136;-84
2022/03/27 02:31:19;;;;;;;24.92;20.08;;;;;;;11.05;40.94;102191.78;5027825;28;20054;-83
2022/03/27 02:33:46;;;;;;;22.42;17.83;;;;;;;11.75;40.99;102319.22;5026318;28;20081;-83
2022/03/27 02:36:13;;;;;;;27.52;19.75;;;;;;;11.58;41.62;102294.69;5026402;28;20059;-83
2022/03/27 02:38:40;;;;;;;25.17;19.70;;;;;;;11.42;41.47;102277.09;5027178;28;20120;-84
2022/03/27 02:41:07;;;;;;;24.40;20.65;;;;;;;11.69;41.29;102314.31;5026539;28;20041;-83
2022/03/27 02:43:38;;;;;;;28.33;20.70;;;;;;;11.54;42.07;102297.56;5026127;28;20084;-83
2022/03/27 02:46:06;;;;;;;28.63;20.17;;;;;;;11.56;41.88;102310.78;5026143;28;20049;-82
2022/03/27 02:48:33;;;;;;;25.20;19.83;;;;;;;11.10;41.45;102231.34;5026011;28;20273;-83
2022/03/27 02:51:00;;;;;;;25.02;20.42;;;;;;;11.16;42.09;102249.53;5026162;28;20166;-83
2022/03/27 02:53:26;;;;;;;28.05;19.92;;;;;;;11.62;41.77;102317.47;5026375;28;20132;-83
2022/03/27 02:55:53;;;;;;;24.50;18.23;;;;;;;11.50;41.69;102284.56;5027049;28;20132;-83
2022/03/27 02:58:25;;;;;;;25.88;18.67;;;;;;;11.73;41.57;102321.13;5031004;28;20159;-83
2022/03/27 03:00:52;;;;;;;26.88;17.90;;;;;;;11.70;40.77;102278.78;5029889;28;20388;-83
2022/03/27 03:03:19;;;;;;;19.50;16.17;;;;;;;11.92;40.83;102320.78;5029250;28;20084;-83
2022/03/27 03:05:46;;;;;;;17.00;15.13;;;;;;;11.38;40.52;102234.84;5029909;28;20053;-82
2022/03/27 03:08:17;;;;;;;21.73;15.73;;;;;;;11.76;40.57;102273.03;5032755;28;20487;-83
2022/03/27 03:10:44;;;;;;;18.15;13.25;;;;;;;12.23;40.11;102313.38;5035881;28;20399;-84
2022/03/27 03:13:13;;;;;;;20.75;14.65;;;;;;;10.96;40.33;102154.34;5027291;28;20256;-83
2022/03/27 03:15:42;;;;;;;18.77;13.82;;;;;;;11.83;40.23;102299.25;5026643;28;20058;-84
2022/03/27 03:18:10;;;;;;;17.08;14.18;;;;;;;11.26;40.80;102226.75;5009189;28;20492;-83
2022/03/27 03:20:38;;;;;;;18.15;14.13;;;;;;;11.65;41.17;102311.94;5009336;28;20145;-83
2022/03/27 03:23:07;;;;;;;24.27;16.42;;;;;;;11.57;41.80;102299.16;5008897;28;20411;-83
2022/03/27 03:25:34;;;;;;;24.80;16.48;;;;;;;11.46;41.47;102280.41;5009267;28;20130;-83
2022/03/27 03:28:21;;;;;;;20.58;14.90;;;;;;;11.54;42.24;102310.00;5008459;28;20061;-83
2022/03/27 03:30:48;;;;;;;20.42;14.55;;;;;;;11.35;42.27;102283.75;5009308;28;20490;-82
2022/03/27 03:33:15;;;;;;;20.02;14.75;;;;;;;11.43;41.53;102307.19;5008911;28;20054;-82
2022/03/27 03:35:42;;;;;;;20.33;14.95;;;;;;;11.35;41.80;102291.75;5009170;28;20400;-83
2022/03/27 03:38:09;;;;;;;15.30;12.73;;;;;;;10.59;41.59;102173.53;5009325;28;20485;-83
2022/03/27 03:40:37;;;;;;;19.00;13.90;;;;;;;11.17;42.44;102271.69;5008602;28;20053;-84
2022/03/27 03:43:04;;;;;;;16.80;11.70;;;;;;;10.47;41.70;102161.88;5009034;28;20082;-83
2022/03/27 03:45:30;;;;;;;16.15;11.82;;;;;;;11.43;41.47;102315.16;5009875;28;20523;-83
2022/03/27 03:47:59;;;;;;;15.45;12.77;;;;;;;11.36;41.40;102309.41;5009977;28;20145;-82
2022/03/27 03:50:26;;;;;;;16.88;12.45;;;;;;;11.38;41.19;102315.47;5008887;28;20443;-83
2022/03/27 03:52:53;;;;;;;14.70;12.30;;;;;;;11.19;41.61;102281.28;5009888;28;20482;-82
2022/03/27 03:55:19;;;;;;;15.43;12.10;;;;;;;11.43;42.29;102323.16;5008355;28;20085;-83
2022/03/27 03:57:46;;;;;;;16.35;11.48;;;;;;;10.93;42.11;102226.28;5008444;28;20098;-84
2022/03/27 04:00:13;;;;;;;13.48;11.32;;;;;;;11.02;41.73;102225.66;5008474;28;20046;-83
2022/03/27 04:02:40;;;;;;;16.08;11.88;;;;;;;11.55;41.98;102319.69;5008075;28;20115;-83
2022/03/27 04:05:07;;;;;;;15.57;12.07;;;;;;;11.29;42.00;102273.56;5008393;28;20056;-83
2022/03/27 04:07:34;;;;;;;14.60;10.50;;;;;;;11.44;40.33;102287.63;5008526;28;20108;-83
2022/03/27 04:10:00;;;;;;;15.93;10.70;;;;;;;11.70;39.96;102310.72;5007870;28;20056;-83
2022/03/27 04:12:27;;;;;;;13.05;11.55;;;;;;;11.74;41.05;102317.50;5009106;28;20060;-83
2022/03/27 04:14:53;;;;;;;13.07;11.05;;;;;;;11.45;41.51;102276.88;5027286;28;20286;-83
2022/03/27 04:17:20;;;;;;;17.05;11.00;;;;;;;11.38;41.43;102272.06;5028898;28;20081;-84
2022/03/27 04:19:47;;;;;;;16.17;11.50;;;;;;;11.47;40.69;102276.78;5027602;28;20479;-81
2022/03/27 04:22:13;;;;;;;17.52;11.70;;;;;;;11.83;40.46;102304.56;5028404;28;20567;-83
2022/03/27 04:24:40;;;;;;;13.38;11.73;;;;;;;11.57;41.14;102269.06;5028329;28;20103;-82
2022/03/27 04:27:07;;;;;;;12.60;10.35;;;;;;;11.63;40.67;102282.81;5028140;28;20140;-83
2022/03/27 04:29:33;;;;;;;18.83;10.88;;;;;;;11.86;41.00;102299.03;5028168;28;20080;-83
2022/03/27 04:32:00;;;;;;;11.43;9.95;;;;;;;11.82;40.37;102263.81;5028670;28;20050;-83
2022/03/27 04:34:27;;;;;;;15.95;10.25;;;;;;;11.81;40.72;102306.47;5027600;28;20053;-83
2022/03/27 04:36:53;;;;;;;11.88;10.13;;;;;;;11.23;41.82;102232.25;5029725;28;20144;-83
2022/03/27 04:39:22;;;;;;;13.85;9.80;;;;;;;11.48;42.06;102299.75;5034464;28;20065;-83
2022/03/27 04:41:49;;;;;;;10.77;9.57;;;;;;;11.49;42.11;102312.13;5031353;28;20452;-82
2022/03/27 04:44:15;;;;;;;13.07;9.60;;;;;;;11.53;42.11;102324.28;5029914;28;20085;-82
2022/03/27 04:46:42;;;;;;;11.23;9.90;;;;;;;11.74;41.06;102328.16;5028256;28;20131;-83
2022/03/27 04:49:09;;;;;;;10.90;8.60;;;;;;;11.51;41.06;102310.22;5028676;28;20057;-83
2022/03/27 04:51:35;;;;;;;11.82;9.50;;;;;;;11.34;41.24;102282.91;5028376;28;20103;-83
2022/03/27 04:54:02;;;;;;;14.00;10.02;;;;;;;11.48;41.93;102331.69;5015244;28;20046;-83
2022/03/27 04:56:29;;;;;;;12.70;9.65;;;;;;;11.41;42.27;102330.38;4984778;28;20367;-83
2022/03/27 04:58:55;;;;;;;15.00;9.25;;;;;;;11.22;43.12;102317.44;4988867;28;20060;-83
2022/03/27 05:01:22;;;;;;;10.85;9.75;;;;;;;11.15;42.83;102305.50;5004946;28;20052;-83
2022/03/27 05:03:49;;;;;;;13.07;10.38;;;;;;;10.70;42.78;102233.91;5005674;28;20116;-82
2022/03/27 05:06:16;;;;;;;13.18;9.57;;;;;;;10.90;43.62;102285.78;5005467;28;20058;-83
2022/03/27 05:08:44;;;;;;;11.13;9.02;;;;;;;11.13;43.04;102326.84;5006270;28;20041;-82
2022/03/27 05:11:11;;;;;;;11.77;9.45;;;;;;;10.76;42.90;102265.41;5009823;28;20073;-83
2022/03/27 05:13:38;;;;;;;15.90;9.52;;;;;;;11.06;43.16;102322.88;5020222;28;20099;-83
2022/03/27 05:16:04;;;;;;;11.05;9.50;;;;;;;10.27;43.79;102191.47;5019325;28;20038;-83
2022/03/27 05:18:31;;;;;;;13.43;9.20;;;;;;;11.16;43.25;102336.41;5026917;28;20092;-82
2022/03/27 05:20:58;;;;;;;11.90;10.05;;;;;;;11.08;43.62;102310.34;5009836;28;20050;-82
2022/03/27 05:23:24;;;;;;;11.52;10.32;;;;;;;11.22;43.59;102346.69;5016367;28;20257;-82
2022/03/27 05:25:52;;;;;;;12.63;9.82;;;;;;;11.26;43.13;102349.03;5026553;28;20216;-83
2022/03/27 05:28:19;;;;;;;15.57;9.27;;;;;;;11.12;43.48;102320.69;5024439;28;20053;-83
2022/03/27 05:30:46;;;;;;;11.80;9.93;;;;;;;11.00;43.68;102299.34;5006212;28;20412;-82
2022/03/27 05:33:13;;;;;;;11.88;9.00;;;;;;;11.08;43.33;102302.38;5015612;28;20053;-83
2022/03/27 05:35:41;;;;;;;14.57;9.38;;;;;;;11.22;43.97;102322.75;5004211;28;20128;-83
2022/03/27 05:38:08;;;;;;;11.52;9.80;;;;;;;11.03;43.69;102297.34;5004318;28;20053;-83
2022/03/27 05:40:34;;;;;;;14.88;9.40;;;;;;;11.32;43.58;102348.63;5004826;28;20108;-83
2022/03/27 05:43:01;;;;;;;13.50;9.82;;;;;;;11.22;43.59;102320.94;5005628;28;20057;-83
2022/03/27 05:45:28;;;;;;;15.00;9.70;;;;;;;11.30;43.63;102333.72;5004517;28;20498;-83
2022/03/27 05:47:55;;;;;;;14.25;10.25;;;;;;;10.93;44.18;102271.47;5003909;28;20063;-84
2022/03/27 05:50:22;;;;;;;11.68;10.23;;;;;;;11.40;44.54;102355.25;5003468;28;20552;-83
2022/03/27 05:52:51;;;;;;;18.02;9.10;;;;;;;11.40;44.02;102360.59;5004511;28;20086;-84
2022/03/27 05:55:18;;;;;;;13.60;10.02;;;;;;;11.43;44.11;102360.38;5003937;28;20062;-83
2022/03/27 05:57:46;;;;;;;13.98;10.25;;;;;;;11.44;44.79;102370.94;5004680;28;20062;-83
2022/03/27 06:00:16;;;;;;;15.93;10.05;;;;;;;11.27;44.13;102339.25;5004092;28;20140;-84
2022/03/27 06:02:43;;;;;;;10.88;9.45;;;;;;;11.22;44.17;102326.25;5005693;28;20085;-82
2022/03/27 06:05:10;;;;;;;11.88;10.32;;;;;;;11.29;44.31;102332.88;5004643;28;20072;-84
2022/03/27 06:07:50;;;;;;;14.02;10.13;;;;;;;11.53;44.87;102370.34;5004109;28;20075;-83
2022/03/27 06:10:23;;;;;;;11.77;9.63;;;;;;;11.21;43.80;102321.03;5005090;28;20278;-82
2022/03/27 06:12:52;;;;;;;12.85;10.45;;;;;;;10.99;43.66;102265.75;5004336;28;20123;-83
2022/03/27 06:15:20;;;;;;;13.30;10.18;;;;;;;11.62;43.80;102376.84;5004250;28;20165;-83
2022/03/27 06:17:48;;;;;;;15.65;10.15;;;;;;;11.65;42.43;102371.34;5004135;28;20361;-83
2022/03/27 06:20:18;;;;;;;13.07;11.20;;;;;;;11.66;42.01;102373.03;5004050;28;20108;-83
2022/03/27 06:22:45;;;;;;;17.23;12.52;;;;;;;11.55;42.26;102356.91;5005398;28;20046;-82
2022/03/27 06:25:16;;;;;;;16.50;11.85;;;;;;;11.74;41.69;102375.19;5003907;28;20054;-83
2022/03/27 06:27:43;;;;;;;16.20;11.73;;;;;;;11.41;41.66;102325.94;5003974;28;20189;-83
2022/03/27 06:30:13;;;;;;;17.13;13.40;;;;;;;11.69;41.29;102367.50;4985223;28;20058;-82
2022/03/27 06:32:39;;;;;;;16.33;12.32;;;;;;;11.55;40.91;102327.66;4991595;28;20074;-82
2022/03/27 06:35:07;;;;;;;19.77;12.82;;;;;;;11.89;40.84;102379.56;4989664;28;20474;-83
2022/03/27 06:37:34;;;;;;;18.42;12.75;;;;;;;11.81;40.23;102365.00;4989543;28;20153;-83
2022/03/27 06:40:02;;;;;;;14.90;11.95;;;;;;;11.70;40.54;102355.94;4989331;28;20520;-83
2022/03/27 06:42:29;;;;;;;13.50;12.05;;;;;;;11.92;41.00;102397.13;4988851;28;20367;-83
2022/03/27 06:44:56;;;;;;;14.45;12.80;;;;;;;11.97;41.11;102422.47;4988870;28;20157;-83
2022/03/27 06:47:27;;;;;;;16.08;12.57;;;;;;;12.01;40.34;102419.59;4995206;28;20125;-83
2022/03/27 06:49:56;;;;;;;15.68;13.00;;;;;;;11.70;40.18;102374.56;5007658;28;20560;-82
2022/03/27 06:52:25;;;;;;;15.25;12.63;;;;;;;11.63;40.59;102362.63;5007422;28;20141;-82
2022/03/27 06:54:52;;;;;;;14.82;13.15;;;;;;;12.13;40.52;102424.13;5007520;28;20045;-80
2022/03/27 06:57:19;;;;;;;15.57;13.63;;;;;;;11.42;40.56;102295.72;5007696;28;20081;-83
2022/03/27 07:05:22;;;;;;;18.08;14.68;;;;;;;11.86;40.26;102349.59;5009828;28;20053;-82
2022/03/27 07:07:52;;;;;;;20.43;14.47;;;;;;;11.91;39.86;102361.66;5008546;28;20165;-82
2022/03/27 07:10:19;;;;;;;18.40;14.48;;;;;;;12.07;40.79;102385.47;5008030;28;20387;-83
2022/03/27 07:12:47;;;;;;;16.75;14.75;;;;;;;12.15;41.07;102399.09;5007689;28;20045;-84
2022/03/27 07:15:14;;;;;;;20.00;16.45;;;;;;;12.14;41.70;102400.06;5007632;28;20131;-83
2022/03/27 07:17:53;;;;;;;18.33;15.55;;;;;;;12.48;41.57;102447.53;5009696;28;20111;-81
2022/03/27 07:20:25;;;;;;;19.63;16.23;;;;;;;12.42;41.58;102430.16;5010775;28;20046;-83
2022/03/27 07:22:58;;;;;;;18.15;15.32;;;;;;;11.76;41.47;102322.75;5014914;28;20061;-82
2022/03/27 07:25:27;;;;;;;19.38;16.55;;;;;;;12.42;40.85;102451.47;5028466;28;20095;-82
2022/03/27 07:27:54;;;;;;;21.70;17.00;;;;;;;12.28;41.13;102416.91;5030547;28;20411;-83
2022/03/27 07:30:21;;;;;;;18.40;15.73;;;;;;;12.53;40.68;102459.59;5029552;28;20057;-82
2022/03/27 07:32:48;;;;;;;19.60;14.13;;;;;;;11.85;39.83;102339.91;5029919;28;20050;-84
2022/03/27 07:35:15;;;;;;;16.95;15.18;;;;;;;12.67;39.84;102461.31;5028316;28;20065;-83
2022/03/27 07:37:43;;;;;;;26.10;16.00;;;;;;;12.74;39.05;102467.06;5027968;28;20128;-84
2022/03/27 07:40:12;;;;;;;19.55;15.32;;;;;;;12.81;38.49;102463.03;5028259;28;20049;-82
2022/03/27 07:42:40;;;;;;;21.48;14.95;;;;;;;12.92;38.32;102457.81;5028310;28;20140;-83
2022/03/27 07:45:09;;;;;;;20.88;15.63;;;;;;;12.93;39.21;102456.84;5029782;28;20049;-84
2022/03/27 07:47:36;;;;;;;24.58;16.85;;;;;;;13.08;38.76;102459.41;5029397;28;20068;-84
2022/03/27 07:50:06;;;;;;;20.17;16.65;;;;;;;12.78;38.71;102402.78;5028358;28;20137;-84
2022/03/27 07:52:34;;;;;;;20.02;15.73;;;;;;;13.07;38.51;102441.72;5027975;28;20057;-84
2022/03/27 07:55:01;;;;;;;20.17;16.25;;;;;;;12.97;37.77;102393.50;5027859;28;20061;-84
2022/03/27 07:57:28;;;;;;;19.33;15.45;;;;;;;13.16;37.39;102430.41;5027898;28;20056;-82
2022/03/27 07:59:55;;;;;;;22.20;15.65;;;;;;;13.37;37.79;102439.53;5029004;28;20050;-83
2022/03/27 08:02:21;;;;;;;19.80;16.17;;;;;;;13.56;36.86;102447.09;5028867;28;20137;-84
2022/03/27 08:04:52;;;;;;;19.35;15.82;;;;;;;13.23;36.81;102389.00;5027727;28;20148;-83
2022/03/27 08:07:19;;;;;;;22.20;16.95;;;;;;;13.61;36.42;102438.75;5027623;28;20487;-82
2022/03/27 08:09:52;;;;;;;28.67;17.52;;;;;;;13.53;36.10;102419.78;5028094;28;20137;-83
2022/03/27 08:12:20;;;;;;;21.23;15.95;;;;;;;13.59;35.58;102413.97;5028619;28;20053;-83
2022/03/27 08:14:48;;;;;;;22.73;17.67;;;;;;;13.83;35.92;102452.22;5029038;28;20148;-83
2022/03/27 08:17:19;;;;;;;18.88;16.23;;;;;;;13.46;35.34;102366.84;5032125;28;20107;-83
2022/03/27 08:19:47;;;;;;;26.15;17.80;;;;;;;13.83;35.82;102425.53;5028859;28;20045;-83
2022/03/27 08:22:14;;;;;;;24.17;17.85;;;;;;;13.59;35.63;102369.50;5031854;28;20120;-83
2022/03/27 08:24:41;;;;;;;25.30;18.15;;;;;;;13.83;35.30;102393.50;5011949;28;20208;-85
2022/03/27 08:27:08;;;;;;;26.48;18.30;;;;;;;14.07;35.08;102433.53;5010071;28;20472;-83
2022/03/27 08:29:38;;;;;;;25.13;18.33;;;;;;;13.23;34.81;102275.16;5009793;28;20128;-83
2022/03/27 08:32:07;;;;;;;26.67;17.48;;;;;;;14.41;34.91;102456.88;5008465;28;20140;-83
2022/03/27 08:34:36;;;;;;;28.20;17.58;;;;;;;14.50;35.21;102458.84;5008386;28;20137;-83
2022/03/27 08:37:05;;;;;;;21.65;16.88;;;;;;;14.42;35.10;102426.53;5008135;28;20579;-84
2022/03/27 08:39:32;;;;;;;23.52;17.40;;;;;;;14.74;34.37;102465.00;5006655;28;20534;-83
2022/03/27 08:41:59;;;;;;;24.67;18.15;;;;;;;14.78;34.51;102462.09;5006812;28;20092;-82
2022/03/27 08:44:28;;;;;;;21.80;17.63;;;;;;;14.82;34.41;102460.91;5008758;28;20100;-85
2022/03/27 08:46:57;;;;;;;22.05;17.50;;;;;;;14.94;34.68;102457.25;5007210;28;20074;-84
2022/03/27 08:49:46;;;;;;;27.85;18.65;;;;;;;14.95;33.56;102453.59;5009058;28;20058;-82
2022/03/27 08:52:21;;;;;;;26.38;18.23;;;;;;;15.05;33.86;102467.97;5009250;28;20054;-85
2022/03/27 08:55:00;;;;;;;26.33;19.73;;;;;;;14.96;33.68;102448.16;5007445;28;20478;-85
2022/03/27 08:57:35;;;;;;;26.00;17.77;;;;;;;15.16;33.53;102469.81;5007827;28;20362;-83
2022/03/27 09:00:02;;;;;;;24.25;19.95;;;;;;;14.64;33.04;102377.63;5007434;28;20104;-83
2022/03/27 09:02:29;;;;;;;22.80;18.63;;;;;;;15.20;32.77;102459.72;5007193;28;20145;-85
2022/03/27 09:04:57;;;;;;;27.05;20.25;;;;;;;15.21;32.93;102453.38;5007774;28;20056;-84
2022/03/27 09:07:24;;;;;;;29.13;20.20;;;;;;;15.38;33.31;102461.75;5007467;28;20140;-86
2022/03/27 09:09:52;;;;;;;25.02;19.67;;;;;;;15.48;32.69;102464.56;5007118;28;20072;-83
2022/03/27 09:12:20;;;;;;;28.38;19.13;;;;;;;15.48;32.86;102453.84;5008367;28;20054;-84
2022/03/27 09:14:48;;;;;;;31.05;20.25;;;;;;;15.53;32.65;102464.19;5008746;28;20061;-83
2022/03/27 09:17:16;;;;;;;28.25;20.70;;;;;;;15.59;32.82;102464.56;5007747;28;20049;-84
2022/03/27 09:19:48;;;;;;;30.38;20.70;;;;;;;15.70;31.88;102458.34;5007283;28;20049;-85
2022/03/27 09:22:21;;;;;;;28.10;21.08;;;;;;;15.54;31.20;102437.31;5008845;28;20049;-84
2022/03/27 09:25:05;;;;;;;27.17;20.33;;;;;;;15.75;32.33;102460.66;5028219;28;20041;-84
2022/03/27 09:27:34;;;;;;;30.83;20.80;;;;;;;15.90;31.97;102453.19;5029198;28;20115;-86
2022/03/27 09:30:06;;;;;;;27.25;20.73;;;;;;;15.91;31.39;102442.34;5029515;28;20073;-85
2022/03/27 09:32:41;;;;;;;32.05;22.13;;;;;;;15.70;31.92;102393.25;5026464;28;20052;-83
2022/03/27 09:35:17;;;;;;;27.10;20.42;;;;;;;15.67;31.92;102372.06;5026240;28;20053;-84
2022/03/27 09:37:46;;;;;;;28.10;19.67;;;;;;;16.16;31.86;102434.97;5026612;28;20107;-83
2022/03/27 09:40:14;;;;;;;27.45;21.20;;;;;;;15.95;32.07;102387.56;5027109;28;20061;-84
2022/03/27 09:42:42;;;;;;;29.83;22.10;;;;;;;16.54;32.02;102457.69;5026279;28;20063;-83
2022/03/27 09:45:14;;;;;;;26.65;21.40;;;;;;;16.58;31.64;102448.41;5025970;28;20053;-83
2022/03/27 09:47:43;;;;;;;25.25;20.85;;;;;;;16.06;31.66;102334.91;5027468;28;20099;-83
2022/03/27 09:50:35;;;;;;;31.42;22.45;;;;;;;16.65;31.21;102401.28;5026290;28;20045;-84
2022/03/27 09:53:20;;;;;;;27.55;21.30;;;;;;;16.98;31.27;102424.38;5026275;28;20550;-83
2022/03/27 09:56:00;;;;;;;30.40;21.17;;;;;;;16.02;30.23;102228.03;5026333;28;20370;-81
2022/03/27 09:58:41;;;;;;;27.58;20.70;;;;;;;17.40;29.64;102428.75;5026560;28;20053;-84
2022/03/27 10:01:17;;;;;;;27.05;19.92;;;;;;;17.66;30.05;102445.22;5026060;28;20432;-82
2022/03/27 10:04:13;;;;;;;31.25;21.13;;;;;;;17.88;28.72;102442.31;5025193;28;20537;-84
2022/03/27 10:06:59;;;;;;;27.42;20.13;;;;;;;17.57;29.56;102387.81;5027351;28;20410;-84
2022/03/27 10:09:26;;;;;;;24.52;18.67;;;;;;;16.83;29.74;102254.91;5031622;28;20464;-85
2022/03/27 10:11:53;;;;;;;28.65;20.80;;;;;;;17.01;29.67;102292.63;5030898;28;20057;-84
2022/03/27 10:14:20;;;;;;;26.48;20.05;;;;;;;17.94;29.17;102438.25;5030820;28;20478;-83
2022/03/27 10:16:50;;;;;;;26.83;20.73;;;;;;;17.96;29.45;102417.44;5030093;28;20095;-83
2022/03/27 10:19:43;;;;;;;26.05;20.20;;;;;;;18.18;29.45;102432.47;5031240;28;20529;-81
2022/03/27 10:22:20;;;;;;;28.40;20.05;;;;;;;18.04;29.10;102385.34;5030679;28;20057;-82
2022/03/27 10:25:02;;;;;;;27.02;19.88;;;;;;;18.19;28.70;102382.22;5031232;28;20450;-82
2022/03/27 10:27:32;;;;;;;29.48;20.00;;;;;;;17.64;28.57;102292.28;5031074;28;20149;-84
2022/03/27 10:29:59;;;;;;;25.92;20.42;;;;;;;18.43;28.96;102427.50;5030074;28;20458;-84
2022/03/27 10:32:26;;;;;;;26.08;20.27;;;;;;;18.00;29.06;102342.78;5030342;28;20413;-83
2022/03/27 10:35:29;;;;;;;28.60;20.10;;;;;;;18.54;29.19;102395.91;5031047;28;20049;-82
2022/03/27 10:38:06;;;;;;;30.33;20.05;;;;;;;18.79;28.71;102404.34;5033036;28;20630;-84
2022/03/27 10:40:52;;;;;;;30.40;20.48;;;;;;;18.85;28.52;102405.59;5031980;28;20156;-82
2022/03/27 10:43:41;;;;;;;;;;;;;;;18.98;27.84;102415.06;5030170;28;20092;-84
2022/03/27 10:46:12;;;;;;;25.73;19.08;;;;;;;19.03;27.99;102405.66;5031305;28;20023;-84
2022/03/27 10:48:42;;;;;;;25.70;20.77;;;;;;;19.08;28.47;102409.63;5030321;28;20076;-83
2022/03/27 10:51:10;;;;;;;25.55;20.23;;;;;;;18.85;28.51;102370.63;5030657;28;20072;-84
2022/03/27 10:53:37;;;;;;;26.90;21.00;;;;;;;18.77;28.02;102355.22;5030441;28;20053;-84
2022/03/27 10:56:04;;;;;;;25.77;19.50;;;;;;;18.95;28.73;102366.88;5030069;28;20132;-83
2022/03/27 10:58:32;;;;;;;26.48;20.13;;;;;;;19.33;28.63;102397.31;5030069;28;20071;-83
2022/03/27 11:01:03;;;;;;;26.15;20.02;;;;;;;19.18;28.75;102396.97;5031916;28;20671;-83
2022/03/27 11:04:11;;;;;;;28.33;19.63;;;;;;;19.11;28.92;102395.88;5030491;28;20085;-83
2022/03/27 11:06:46;;;;;;;28.67;20.73;;;;;;;18.75;29.21;102351.78;5022194;28;20054;-83
2022/03/27 11:09:33;;;;;;;30.27;20.80;;;;;;;18.97;29.16;102391.81;5030445;28;20095;-82
2022/03/27 11:12:05;;;;;;;26.60;20.55;;;;;;;18.93;29.40;102393.13;5029923;28;20080;-82
2022/03/27 11:14:54;;;;;;;29.38;21.90;;;;;;;18.90;29.90;102388.00;5031944;28;20491;-83
2022/03/27 11:18:09;;;;;;;24.30;20.60;;;;;;;18.77;30.02;102377.59;5029487;28;20049;-84
2022/03/27 11:20:36;;;;;;;28.63;22.27;;;;;;;18.51;30.50;102339.69;4972939;28;20050;-82
2022/03/27 11:23:04;;;;;;;31.42;21.10;;;;;;;18.78;30.23;102379.28;4960751;28;20123;-81
2022/03/27 11:25:30;;;;;;;26.27;22.08;;;;;;;18.82;30.84;102385.22;4973248;28;20050;-83